| Place | Name | Time | Raw score | Score |
|---|---|---|---|---|
| 1 | Waonder | 1:36.12 | 1,000 | 392 |
| 2 | Seekr | 1:36.42 | 900 | 353 |
| 3 | Jay2a | 1:37.26 | 859 | 337 |
| 4 | Siyzerix | 1:37.34 | 827 | 324 |
| 5 | Mei Rummy-chan | 1:38.04 | 800 | 313 |
| 6 | Pristine | 1:38.14 | 777 | 304 |
| 7 | Terrapin | 1:38.69 | 756 | 296 |
| 8 | Bridge | 1:40.72 | 736 | 288 |
| 9 | Hotride | 1:41.68 | 718 | 281 |
| 10 | Zany | 1:41.88 | 700 | 274 |
| 11 | Predatory_Balloon | 1:42.14 | 684 | 268 |
| 12 | XiQu3sT | 1:43.80 | 669 | 262 |
| 13 | Thermos | 1:44.21 | 654 | 256 |
| 14 | i0nTempest | 1:44.58 | 640 | 251 |
| 15 | onyxglow | 1:48.36 | 626 | 245 |
| 16 | slug ʕ●.●ʔ | 1:50.33 | 613 | 240 |
| 17 | Tribow | 1:50.89 | 600 | 235 |
| 18 | Awesomedan | 1:51.27 | 588 | 230 |
| 19 | Buck | 1:51.41 | 576 | 226 |
| 20 | burger | 1:51.98 | 565 | 221 |
| 21 | baakstaff | 1:52.10 | 553 | 217 |
| 22 | fentanyl lover <3 | 1:52.12 | 542 | 212 |
| 23 | Nerf | 1:52.17 | 531 | 208 |
| 24 | DasGerippe | 1:52.19 | 521 | 204 |
| 25 | PinesOfChaos | 1:52.44 | 511 | 200 |
| 26 | Pelerin | 1:52.53 | 500 | 196 |
| 27 | [RYC] Robin Yrvriff | 1:52.66 | 491 | 192 |
| 28 | ReallyDumbFox | 1:52.68 | 481 | 188 |
| 29 | lift your tail for me | 1:52.71 | 471 | 185 |
| 30 | Other XIX | 1:52.74 | 462 | 181 |
| 31 | EleventyB | 1:52.79 | 453 | 177 |
| 32 | Sidewinder Fang | 1:52.82 | 444 | 174 |
| 33 | JDthe3rd | 1:52.89 | 435 | 170 |
| 34 | NeonChaosAwoo | 1:52.94 | 426 | 167 |
| 35 | Azure | 1:52.96 | 417 | 163 |
| 35 | Ebeta2 | 1:52.96 | 417 | 163 |
| 37 | JacquetheRipper | 1:52.97 | 400 | 157 |
| 38 | Orion | 1:53.02 | 392 | 154 |
| 39 | Kinix | 1:53.05 | 384 | 150 |
| 40 | Syntax | 1:53.11 | 376 | 147 |
| 41 | notguts | 1:53.14 | 368 | 144 |
| 42 | Battle Banana Chris Handsom | 1:53.15 | 360 | 141 |
| 43 | NicholasKB19 | 1:53.18 | 352 | 138 |
| 44 | Pink | 1:53.19 | 345 | 135 |
| 45 | Brionac | 1:53.20 | 337 | 132 |
| 46 | Curious Fish | 1:53.21 | 330 | 129 |
| 46 | SlowScan | 1:53.21 | 330 | 129 |
| 46 | Jam0344 | 1:53.21 | 330 | 129 |
| 49 | Domino | 1:53.22 | 308 | 121 |
| 50 | T8Destroyer | 1:53.23 | 300 | 118 |
| 51 | Gregg the Grim Reaper | 1:53.26 | 293 | 115 |
| 52 | Raynland McNuggets | 1:53.27 | 286 | 112 |
| 53 | SirDan | 1:53.28 | 279 | 109 |
| 54 | levinv270 | 1:53.29 | 272 | 107 |
| 55 | h | 1:53.30 | 266 | 104 |
| 55 | Wolf Black | 1:53.30 | 266 | 104 |
| 57 | DefenderOfHyrule | 1:53.33 | 252 | 99 |
| 58 | Woody | 1:53.35 | 246 | 96 |
| 59 | jason | 1:53.36 | 239 | 94 |
| 60 | lefor0416 | 1:53.38 | 232 | 91 |
| 61 | Racheecha | 1:53.39 | 226 | 89 |
| 62 | humperdink | 1:53.43 | 219 | 86 |
| 62 | Lore maker | 1:53.43 | 219 | 86 |
| 64 | G5TNo2486 | 1:53.46 | 207 | 81 |
| 65 | NUKA | 1:53.47 | 200 | 78 |
| 66 | Krull | 1:53.49 | 194 | 76 |
| 67 | [REDACTED] | 1:53.54 | 188 | 74 |
| 68 | Maxter Max | 1:53.56 | 182 | 71 |
| 69 | Defiance_LLK | 1:53.62 | 176 | 69 |
| 70 | Cptnbean | 1:53.63 | 170 | 67 |
| 70 | kiwi | 1:53.63 | 170 | 67 |
| 72 | A̶͓̓z̷͓̍ũ̴̩r̷͔͐e̴ | 1:53.64 | 158 | 62 |
| 73 | Dubblr | 1:53.68 | 152 | 60 |
| 74 | bacon | 1:53.71 | 146 | 57 |
| 74 | Azure Zakura | 1:53.71 | 146 | 57 |
| 76 | Galactica Racer | 1:53.72 | 134 | 52 |
| 77 | Qioury | 1:53.73 | 129 | 51 |
| 77 | Тайно дёргал | 1:53.73 | 129 | 51 |
| 79 | That One Panda | 1:53.77 | 117 | 46 |
| 80 | cerberus❤ | 1:53.79 | 112 | 44 |
| 80 | Skrigar | 1:53.79 | 112 | 44 |
| 82 | pandu | 1:53.80 | 100 | 39 |
| 83 | Dejesho | 1:53.81 | 95 | 37 |
| 84 | DOOM | 1:53.82 | 89 | 35 |
| 85 | matheus paiva | 1:53.84 | 84 | 33 |
| 86 | XCVIBUR | 1:53.85 | 79 | 31 |
| 86 | Viridus | 1:53.85 | 79 | 31 |
| 88 | XLgeneral | 1:53.86 | 68 | 27 |
| 89 | sacrafish | 1:53.93 | 62 | 24 |
| 90 | Weird Pumpkin | 1:54.02 | 57 | 22 |
| 91 | Sev | 1:54.03 | 52 | 20 |
| 92 | kriz_chan | 1:54.04 | 47 | 18 |
| 92 | SirAcetea | 1:54.04 | 47 | 18 |
| 94 | SPEEDYSPEEDBOI | 1:54.06 | 36 | 14 |
| 95 | [deleted] | 1:54.07 | 31 | 12 |
| 95 | Overlord | 1:54.07 | 31 | 12 |
| 97 | CrazyMaurice120 | 1:54.11 | 21 | 8 |
| 97 | Norz-Öril'Kern | 1:54.11 | 21 | 8 |
| 97 | toniqe53 | 1:54.11 | 21 | 8 |
| 100 | cfr34k | 1:54.12 | 6 | 2 |
| 101 | Saberik | 1:54.14 | 0 | 0 |
| 102 | Topaz95 | 1:54.15 | 0 | 0 |
| 103 | TantasStarke | 1:54.20 | 0 | 0 |
| 104 | HyperNova | 1:54.21 | 0 | 0 |
| 105 | NK - Néko | 1:54.26 | 0 | 0 |
| 106 | Crimson Blood | 1:54.27 | 0 | 0 |
| 107 | khrisround2 | 1:54.28 | 0 | 0 |
| 107 | TheMelonGod | 1:54.28 | 0 | 0 |
| 109 | TurboPasta | 1:54.29 | 0 | 0 |
| 109 | Roboraser | 1:54.29 | 0 | 0 |
| 111 | MAT D.R.⎛⎝≥⏝⏝≤⎠⎞ | 1:54.32 | 0 | 0 |
| 111 | Onneyon | 1:54.32 | 0 | 0 |
| 113 | FireTime | 1:54.34 | 0 | 0 |
| 113 | Storm the Snep | 1:54.34 | 0 | 0 |
| 115 | CodedCrow | 1:54.37 | 0 | 0 |
| 116 | Meda | 1:54.38 | 0 | 0 |
| 117 | PhantomKnightly | 1:54.40 | 0 | 0 |
| 118 | Rombommind | 1:54.41 | 0 | 0 |
| 119 | Enso | 1:54.44 | 0 | 0 |
| 120 | TheEvilMidnightBomber | 1:54.48 | 0 | 0 |
| 121 | Me an intellectual | 1:54.50 | 0 | 0 |
| 122 | Mr. Toasty | 1:54.52 | 0 | 0 |
| 123 | Apocalyptic Bunny | 1:54.56 | 0 | 0 |
| 123 | RaiderZulu | 1:54.56 | 0 | 0 |
| 125 | Ruby0n0 | 1:54.57 | 0 | 0 |
| 126 | Dislin | 1:54.59 | 0 | 0 |
| 126 | Luminous | 1:54.59 | 0 | 0 |
| 126 | codename_rb | 1:54.59 | 0 | 0 |
| 129 | Camel | 1:54.62 | 0 | 0 |
| 130 | Old Bastard | 1:54.66 | 0 | 0 |
| 131 | Kibōchen | 1:54.68 | 0 | 0 |
| 132 | Kaliphear | 1:54.69 | 0 | 0 |
| 133 | Billy Bat | 1:54.72 | 0 | 0 |
| 134 | sizifov | 1:54.76 | 0 | 0 |
| 135 | Rybot | 1:54.78 | 0 | 0 |
| 136 | Spacefarer | 1:54.79 | 0 | 0 |
| 137 | Snoh | 1:54.80 | 0 | 0 |
| 138 | russ117 | 1:54.81 | 0 | 0 |
| 139 | xanthousphoenix | 1:54.82 | 0 | 0 |
| 140 | JankyDingus | 1:54.83 | 0 | 0 |
| 141 | Lil O.D. | 1:54.84 | 0 | 0 |
| 142 | EndlessGaming | 1:54.85 | 0 | 0 |
| 143 | Windsjorn | 1:54.92 | 0 | 0 |
| 144 | Antumarin | 1:54.95 | 0 | 0 |
| 145 | Greenfire DX | 1:54.96 | 0 | 0 |
| 146 | jetknife | 1:54.99 | 0 | 0 |
| 147 | Jarminx | 1:55.01 | 0 | 0 |
| 148 | lift ur pooltoy tail for me | 1:55.02 | 0 | 0 |
| 149 | pox | 1:55.08 | 0 | 0 |
| 149 | VI_fizz | 1:55.08 | 0 | 0 |
| 149 | FOG BLAST THE VENT CORE | 1:55.08 | 0 | 0 |
| 152 | Dyltra | 1:55.10 | 0 | 0 |
| 153 | Nick | 1:55.11 | 0 | 0 |
| 154 | Mr. Doggy | 1:55.14 | 0 | 0 |
| 155 | Dupol | 1:55.19 | 0 | 0 |
| 156 | Sugoi-desu (⊙‿⊙✿) | 1:55.23 | 0 | 0 |
| 156 | Mîlchschnîtte | 1:55.23 | 0 | 0 |
| 158 | LaniHam | 1:55.33 | 0 | 0 |
| 159 | Shyylock | 1:55.34 | 0 | 0 |
| 160 | zombieassaultman | 1:55.40 | 0 | 0 |
| 161 | Dr Axton | 1:55.41 | 0 | 0 |
| 162 | Pollywannahacker | 1:55.44 | 0 | 0 |
| 163 | Sock | 1:55.46 | 0 | 0 |
| 164 | Sunnydan | 1:55.51 | 0 | 0 |
| 164 | MasterJedi2014 | 1:55.51 | 0 | 0 |
| 164 | Breezy™ | 1:55.51 | 0 | 0 |
| 167 | S.Kappelmann | 1:55.56 | 0 | 0 |
| 168 | CrimsonFez | 1:55.60 | 0 | 0 |
| 168 | DJ McBirde | 1:55.60 | 0 | 0 |
| 170 | Epsilon_Knight | 1:55.61 | 0 | 0 |
| 171 | DieselFace | 1:55.62 | 0 | 0 |
| 172 | Krogoth | 1:55.69 | 0 | 0 |
| 173 | EnderKill98 | 1:55.71 | 0 | 0 |
| 174 | Autism M5 Max | 1:55.72 | 0 | 0 |
| 175 | PineFreshGuy | 1:55.78 | 0 | 0 |
| 176 | BlacKat | 1:55.83 | 0 | 0 |
| 177 | Splat | 1:55.84 | 0 | 0 |
| 178 | Hayden | 1:55.87 | 0 | 0 |
| 179 | twomanynumbers | 1:55.89 | 0 | 0 |
| 180 | Scarlet | 1:55.93 | 0 | 0 |
| 180 | biwanav | 1:55.93 | 0 | 0 |
| 182 | CeruleanAzura | 1:55.94 | 0 | 0 |
| 183 | sour | 1:55.99 | 0 | 0 |
| 184 | Burden, The Red | 1:56.02 | 0 | 0 |
| 184 | Ozymandias | 1:56.02 | 0 | 0 |
| 186 | Archi | 1:56.09 | 0 | 0 |
| 187 | ReadWriteError | 1:56.17 | 0 | 0 |
| 188 | TheFluffyDragon/JBSTheGamer | 1:56.23 | 0 | 0 |
| 189 | Pompous Whale | 1:56.29 | 0 | 0 |
| 190 | klockhov | 1:56.31 | 0 | 0 |
| 191 | gnss- | 1:56.32 | 0 | 0 |
| 192 | TheEPROM9 LaTeX | 1:56.33 | 0 | 0 |
| 193 | Lud | Forest | 1:56.35 | 0 | 0 |
| 193 | 多老师 | 1:56.35 | 0 | 0 |
| 195 | Eagl3 | 1:56.37 | 0 | 0 |
| 196 | Mar_Veloz | 1:56.38 | 0 | 0 |
| 197 | JohnCorby | 1:56.41 | 0 | 0 |
| 198 | Californ1a | 1:56.44 | 0 | 0 |
| 199 | wanderingradio | 1:56.48 | 0 | 0 |
| 199 | markschuurman1990 | 1:56.48 | 0 | 0 |
| 199 | Kypar | 1:56.48 | 0 | 0 |
| 202 | AL3Xey | 1:56.51 | 0 | 0 |
| 203 | Suspect | 1:56.59 | 0 | 0 |
| 204 | Ktee | 1:56.62 | 0 | 0 |
| 205 | SIGSTACKFAULT | 1:56.69 | 0 | 0 |
| 206 | Cyxxus | 1:56.71 | 0 | 0 |
| 207 | MyurrDurr | 1:56.73 | 0 | 0 |
| 208 | THE FINAL LOSER | 1:56.79 | 0 | 0 |
| 209 | Aureliayk | 1:56.89 | 0 | 0 |
| 210 | krakentoa | 1:56.97 | 0 | 0 |
| 210 | EmeraldSlash | 1:56.97 | 0 | 0 |
| 212 | TP-N.co PC-118 B-10001110101 | 1:56.98 | 0 | 0 |
| 213 | Delhjiko | 1:57.00 | 0 | 0 |
| 214 | Tybalt the First | 1:57.02 | 0 | 0 |
| 215 | 黒 Crow | 1:57.03 | 0 | 0 |
| 215 | Hijacker02 | 1:57.03 | 0 | 0 |
| 217 | Seshiruseth | 1:57.08 | 0 | 0 |
| 218 | CrimsonFox98 | 1:57.14 | 0 | 0 |
| 219 | Meep | 1:57.15 | 0 | 0 |
| 220 | Lady Yupiel | 1:57.26 | 0 | 0 |
| 221 | Benji | 1:57.27 | 0 | 0 |
| 222 | Nickel | 1:57.33 | 0 | 0 |
| 223 | YoloMoth | 1:57.42 | 0 | 0 |
| 224 | CampingCarl | 1:57.50 | 0 | 0 |
| 225 | Samn | 1:57.70 | 0 | 0 |
| 226 | Darth Sand | 1:57.76 | 0 | 0 |
| 227 | Paparazzi | 1:57.79 | 0 | 0 |
| 228 | Edragon13 | 1:57.84 | 0 | 0 |
| 229 | Therio | 1:57.89 | 0 | 0 |
| 230 | Alex | 1:57.90 | 0 | 0 |
| 231 | Blacky Stranger | 1:57.96 | 0 | 0 |
| 232 | -DarkLlama- | 1:58.00 | 0 | 0 |
| 232 | P1nkFluffyBunnE | 1:58.00 | 0 | 0 |
| 234 | LOLO FAK | 1:58.11 | 0 | 0 |
| 234 | fffern | 1:58.11 | 0 | 0 |
| 236 | krizithy | 1:58.17 | 0 | 0 |
| 237 | Majae102 | 1:58.18 | 0 | 0 |
| 238 | 1:58.19 | 0 | 0 | |
| 239 | D0HERRITT | 1:58.21 | 0 | 0 |
| 240 | Inzarin | 1:58.24 | 0 | 0 |
| 241 | Pteroborne | 1:58.26 | 0 | 0 |
| 242 | Magister Ludi | 1:58.36 | 0 | 0 |
| 243 | Rusty | 1:58.44 | 0 | 0 |
| 244 | Arca | 1:58.47 | 0 | 0 |
| 245 | Apash | 1:58.72 | 0 | 0 |
| 246 | ElHombre86 | 1:58.78 | 0 | 0 |
| 247 | Lampshaede | 1:58.81 | 0 | 0 |
| 248 | JayBoneJay | 1:58.88 | 0 | 0 |
| 249 | Jarek718 | 1:58.95 | 0 | 0 |
| 249 | UNSCSayMyName | 1:58.95 | 0 | 0 |
| 251 | The Brightest Star | 1:58.98 | 0 | 0 |
| 252 | Darkk_Chungus | 1:59.14 | 0 | 0 |
| 253 | troysmith14 | 1:59.18 | 0 | 0 |
| 254 | LittleKittyArtemis | 1:59.23 | 0 | 0 |
| 255 | Western Ice Noodle | 1:59.30 | 0 | 0 |
| 256 | Phaidros | 1:59.36 | 0 | 0 |
| 257 | Kru | 1:59.43 | 0 | 0 |
| 258 | Duke Swampy | 1:59.49 | 0 | 0 |
| 259 | Big Bootiecoot | 1:59.58 | 0 | 0 |
| 260 | < blank > | 1:59.70 | 0 | 0 |
| 261 | DriveOffTheCliff | 1:59.88 | 0 | 0 |
| 262 | SparraNova | 1:59.95 | 0 | 0 |
| 263 | Henke | 2:00.18 | 0 | 0 |
| 264 | Qbetex | 2:00.21 | 0 | 0 |
| 265 | raphicapo | 2:00.33 | 0 | 0 |
| 266 | Иносис | 2:00.38 | 0 | 0 |
| 267 | Ninja Squirel | 2:00.45 | 0 | 0 |
| 268 | Sky Captain | 2:00.50 | 0 | 0 |
| 269 | nightclubpositive | 2:00.90 | 0 | 0 |
| 270 | Andy95 | 2:00.91 | 0 | 0 |
| 271 | Sayukki | 2:00.96 | 0 | 0 |
| 272 | Nexus | 2:01.08 | 0 | 0 |
| 272 | Kiwi | 2:01.08 | 0 | 0 |
| 274 | Simon Evo | 2:01.12 | 0 | 0 |
| 275 | D-Z-U-E-T | 2:01.24 | 0 | 0 |
| 276 | Plasmawario | 2:01.36 | 0 | 0 |
| 277 | SPλRROW | 2:01.52 | 0 | 0 |
| 278 | Shaka | 2:01.54 | 0 | 0 |
| 279 | Frit_/x/ | 2:01.76 | 0 | 0 |
| 280 | Dreigo | 2:01.82 | 0 | 0 |
| 281 | SaltedFork | 2:02.10 | 0 | 0 |
| 282 | TerraHawk | 2:02.63 | 0 | 0 |
| 283 | Jester Thomas | 2:02.73 | 0 | 0 |
| 284 | Jos | 2:02.76 | 0 | 0 |
| 285 | Crespojazzman | 2:02.83 | 0 | 0 |
| 286 | Lliane | 2:03.20 | 0 | 0 |
| 287 | Dusty | 2:03.50 | 0 | 0 |
| 288 | Titimilk123 | 2:04.24 | 0 | 0 |
| 289 | BrandonK-TN | 2:04.30 | 0 | 0 |
| 290 | Crysest | 2:04.48 | 0 | 0 |
| 291 | Respectful King | 2:04.49 | 0 | 0 |
| 292 | KaMozo25 | 2:04.81 | 0 | 0 |
| 293 | sbeve | 2:04.85 | 0 | 0 |
| 294 | doomsday device | 2:04.94 | 0 | 0 |
| 295 | Nisesh | 2:06.20 | 0 | 0 |
| 296 | catbotz | 2:06.34 | 0 | 0 |
| 297 | WiteNite | 2:06.60 | 0 | 0 |
| 298 | Earthnuker | 2:06.62 | 0 | 0 |
| 299 | Feed The Fishes | 2:06.93 | 0 | 0 |
| 300 | FifteenBread | 2:07.03 | 0 | 0 |
| 301 | PuddyKilla | 2:07.06 | 0 | 0 |
| 302 | Detective Man | 2:07.08 | 0 | 0 |
| 303 | Mambo | 2:07.21 | 0 | 0 |
| 304 | Onur | 2:07.60 | 0 | 0 |
| 305 | GhostlyCryptid | 2:07.69 | 0 | 0 |
| 306 | DobreBobre | 2:07.89 | 0 | 0 |
| 307 | shi+0rty | 2:07.92 | 0 | 0 |
| 308 | Gammeta | 2:07.94 | 0 | 0 |
| 309 | Warriot | 2:08.30 | 0 | 0 |
| 310 | SX64 | 2:08.67 | 0 | 0 |
| 311 | Turnabout Grag | 2:09.06 | 0 | 0 |
| 312 | GekoKid | 2:09.34 | 0 | 0 |
| 313 | 猫かわいい | 2:09.51 | 0 | 0 |
| 314 | Ayre | 2:10.78 | 0 | 0 |
| 315 | Orange Bomb | 2:11.62 | 0 | 0 |
| 316 | VariousBlazertazer | 2:11.74 | 0 | 0 |
| 317 | Creepersrock24Gaming | 2:11.76 | 0 | 0 |
| 318 | conduit | 2:12.06 | 0 | 0 |
| 319 | RitchiArts | 2:13.17 | 0 | 0 |
| 320 | Jackie | 2:13.34 | 0 | 0 |
| 321 | Traetors | 2:13.39 | 0 | 0 |
| 322 | Шоколадка:) | 2:13.57 | 0 | 0 |
| 323 | Isabella | 2:13.82 | 0 | 0 |
| 324 | Drafter | 2:14.11 | 0 | 0 |
| 325 | ohtus | 2:14.16 | 0 | 0 |
| 326 | Cheapo | 2:14.64 | 0 | 0 |
| 327 | Fleabag | 2:15.44 | 0 | 0 |
| 328 | Duke Jaeger | 2:15.49 | 0 | 0 |
| 329 | yuri gagarin's creamy interior | 2:15.72 | 0 | 0 |
| 330 | GTNeon | 2:15.73 | 0 | 0 |
| 331 | squaredanced | 2:15.81 | 0 | 0 |
| 332 | Slender19rus | 2:16.36 | 0 | 0 |
| 333 | BEPISMAN.exe | 2:16.90 | 0 | 0 |
| 334 | Lémohn | 2:17.04 | 0 | 0 |
| 335 | RainBowBine | 2:17.11 | 0 | 0 |
| 336 | siafa | 2:17.52 | 0 | 0 |
| 337 | Echor | 2:17.92 | 0 | 0 |
| 338 | Mr SEVEN | 2:18.54 | 0 | 0 |
| 339 | nuclearfrisson | 2:18.71 | 0 | 0 |
| 340 | BedrokiV | 2:18.85 | 0 | 0 |
| 341 | yoonhw94 | 2:18.88 | 0 | 0 |
| 342 | Meisolus | 2:18.91 | 0 | 0 |
| 343 | sneulv2 | 2:18.95 | 0 | 0 |
| 344 | Umbrasbane | 2:19.34 | 0 | 0 |
| 345 | marius_redandblue | 2:19.54 | 0 | 0 |
| 346 | I Sleep In Polos | 2:20.14 | 0 | 0 |
| 347 | Wolf | 2:20.55 | 0 | 0 |
| 348 | [echo] | 2:20.57 | 0 | 0 |
| 349 | El Tortuga | 2:20.62 | 0 | 0 |
| 350 | IllKIllU | 2:20.66 | 0 | 0 |
| 351 | Erwan | 2:21.74 | 0 | 0 |
| 352 | cheif22 | 2:21.89 | 0 | 0 |
| 353 | A Very Angy Opossum | 2:22.49 | 0 | 0 |
| 354 | Deyla | 2:22.62 | 0 | 0 |
| 355 | Latapi | 2:23.36 | 0 | 0 |
| 356 | g●Sleep | 2:23.42 | 0 | 0 |
| 357 | anemoia07._ | 2:23.75 | 0 | 0 |
| 358 | FlippingTable | 2:23.89 | 0 | 0 |
| 359 | Jeats | 2:24.08 | 0 | 0 |
| 360 | SC000TER | 2:25.22 | 0 | 0 |
| 361 | Snerlop | 2:25.29 | 0 | 0 |
| 362 | potion | 2:25.49 | 0 | 0 |
| 363 | [deleted] | 2:28.61 | 0 | 0 |
| 364 | skuzzzy | 2:29.53 | 0 | 0 |
| 365 | Thereal_Blade99 | 2:30.28 | 0 | 0 |
| 366 | Azzy | 2:32.52 | 0 | 0 |
| 367 | Shinrararara | 2:32.53 | 0 | 0 |
| 368 | Yipp | 2:33.24 | 0 | 0 |
| 369 | cheerso boombastik | 2:33.39 | 0 | 0 |
| 370 | Loys Nuva | 2:34.83 | 0 | 0 |
| 371 | Leviathos | 2:34.95 | 0 | 0 |
| 372 | ★ Star ★ | 2:35.34 | 0 | 0 |
| 373 | Not_Izaah | 2:35.96 | 0 | 0 |
| 374 | Alzeon | 2:38.06 | 0 | 0 |
| 375 | N_Thinker | 2:40.49 | 0 | 0 |
| 376 | cuts | 2:42.37 | 0 | 0 |
| 377 | xxxanubisxvi | 2:44.41 | 0 | 0 |
| 378 | Talent | 2:44.93 | 0 | 0 |
| 379 | Ninja_Lord69 | 2:45.85 | 0 | 0 |
| 380 | Renota | 2:46.10 | 0 | 0 |
| 381 | ShadeSlayer24 | 2:46.17 | 0 | 0 |
| 382 | J4M3Z34 | 2:48.73 | 0 | 0 |
| 383 | Krunch | 2:49.64 | 0 | 0 |
| 384 | Jules | 2:52.67 | 0 | 0 |
| 385 | Pjoxt | 2:59.02 | 0 | 0 |
| 386 | Pingu | 2:59.29 | 0 | 0 |
| 387 | MR.CH33ZZY 63 | 3:07.26 | 0 | 0 |
| 388 | Citizen Light | 3:07.40 | 0 | 0 |
| 389 | DevilSShadoW | 3:07.89 | 0 | 0 |
| 390 | Winters | 3:08.62 | 0 | 0 |
| 391 | JeffTheBruh | 3:10.16 | 0 | 0 |
| 392 | Razgriez | 3:12.62 | 0 | 0 |
| 393 | BigToeBandit | 3:15.43 | 0 | 0 |
| 394 | Skeleton Plower | 3:15.67 | 0 | 0 |
| 395 | supa scoopa | 3:24.16 | 0 | 0 |
| 396 | morningbird | 3:26.15 | 0 | 0 |
| 397 | Skrall' | 3:27.72 | 0 | 0 |
| 398 | cachampter | 3:28.40 | 0 | 0 |
| 399 | Voiced | 3:29.60 | 0 | 0 |
| 400 | エスケーゼィ | 3:35.19 | 0 | 0 |
| 401 | Birdiot | 3:40.03 | 0 | 0 |
| 402 | Jurajojo | 3:51.10 | 0 | 0 |
| 403 | ZephyrBlaze1 | 3:56.03 | 0 | 0 |
| 404 | Xetren | 3:58.54 | 0 | 0 |
| 405 | caelence | 4:14.26 | 0 | 0 |
| 406 | EXOx420 | 4:29.08 | 0 | 0 |
| 407 | Dipironald | 4:30.82 | 0 | 0 |
| 408 | Pinguin | 4:46.97 | 0 | 0 |
| 409 | Svenn Ethir | 4:47.67 | 0 | 0 |
| 410 | Zyde | 4:50.40 | 0 | 0 |
| 411 | Helpeg | 5:12.33 | 0 | 0 |
| 412 | Гвоздь | 5:19.90 | 0 | 0 |
| 413 | titlewave91 | 7:45.38 | 0 | 0 |
| 414 | Alistar | 7:51.63 | 0 | 0 |
HoldGrip